Hills and Dales, Ohio
Current Conditions -  °F | °C
As of 3:51 PM on Sunday 23 Nov 2014 (Local Time) from KCAK Reporting Station
Overcast Overcast  
Wind Chill: 59°   Ceiling: 16000
Heat Index: 59°   Visibility: 10mi
Dew Point: 43°   Wind: 12mph
Humidity: 55%   Direction: 120°ESE
Pressure: 29.79"   Gusts: NA
Location:  40.8156°N, 81.4331°W
Report Text: KCAK 232051Z 12010KT 10SM SCT130 OVC160 15/06 A2979 RMK AO2 SLP088 T01500061 58046 $
Loading
Personal Weather Stations






























Interactive Weather Map New forecast layout! Learn more

10-Day Weather Forecast

Advertisements
Track Severe Weather on mobile